Flight Track Log - Related Links

Times and Time Zones

All times are in EDT time to prevent confusion due to time zone crossing. See the SKW6345 flight status page for this flight to view local times or setup timezone preferences in your user account.

Time Position Orientation Groundspeed Altitude Reporting Facility
EDT Latitude Longitude Course Direction KTS MPH feet Rate Location/Type
Sat 01:54:32 PM 45.7569 -111.1275 290° West 152 175 5,300  Level Salt Lake Center
Sat 01:55:33 PM 45.7147 -111.1725 217° Southwest 225 259 7,100 1,805 Climbing Salt Lake Center
Sat 01:56:35 PM 45.7056 -111.2631 262° West 236 272 9,000 1,694 Climbing Salt Lake Center
Sat 01:57:00 PM 45.7455 -111.6880 288° West  Level FlightAware Approximate
Sat 01:57:37 PM 45.7158 -111.3753 278° West 264 304 10,600  Level Salt Lake Center
Sat 01:58:00 PM 45.7768 -111.8287 288° West  Level FlightAware Approximate
Sat 01:58:39 PM 45.7286 -111.4869 279° West 276 318 12,500  Level Salt Lake Center
Sat 01:59:00 PM 45.8089 -111.9691 290° West  Level FlightAware Approximate
Sat 01:59:41 PM 45.7436 -111.6253 279° West 289 333 14,700  Level Salt Lake Center
Sat 02:00:43 PM 45.7119 -111.7275 246° West 286 329 16,400 1,488 Climbing Salt Lake Center
Sat 02:01:46 PM 45.6681 -111.8236 237° Southwest 289 333 17,800 1,152 Climbing Salt Lake Center
Sat 02:02:48 PM 45.6233 -111.9217 237° Southwest 293 337 18,800 968 Climbing Salt Lake Center
Sat 02:03:50 PM 45.5750 -112.0272 237° Southwest 312 359 19,800 968 Climbing Salt Lake Center
Sat 02:04:52 PM 45.5242 -112.1342 236° Southwest 325 374 20,800 1,065 Climbing Salt Lake Center
Sat 02:05:54 PM 45.4625 -112.2681 237° Southwest 336 387 22,000 968 Climbing Salt Lake Center
Sat 02:06:56 PM 45.4100 -112.3817 237° Southwest 341 392 22,800 823 Climbing Salt Lake Center
Sat 02:07:58 PM 45.3539 -112.5014 236° Southwest 351 404 23,700 823 Climbing Salt Lake Center
Sat 02:09:00 PM 45.3008 -112.6131 236° Southwest 357 411 24,500 823 Climbing Salt Lake Center
Sat 02:10:02 PM 45.2394 -112.7450 237° Southwest 359 413 25,400 726 Climbing Salt Lake Center
Sat 02:11:04 PM 45.1864 -112.8578 236° Southwest 360 414 26,000 629 Climbing Salt Lake Center
Sat 02:12:06 PM 45.1222 -112.9928 236° Southwest 370 426 26,700 581 Climbing Salt Lake Center
Sat 02:13:08 PM 45.0669 -113.1081 236° Southwest 370 426 27,200 581 Climbing Salt Lake Center
Sat 02:14:10 PM 45.0008 -113.2439 235° Southwest 374 430 27,900 629 Climbing Salt Lake Center
Sat 02:15:12 PM 44.9447 -113.3600 236° Southwest 375 432 28,500 581 Climbing Salt Lake Center
Sat 02:16:14 PM 44.8789 -113.4958 236° Southwest 376 433 29,100 484 Climbing Salt Lake Center
Sat 02:17:16 PM 44.8225 -113.6125 236° Southwest 376 433 29,500 435 Climbing Salt Lake Center
Sat 02:18:18 PM 44.7553 -113.7497 235° Southwest 380 437 30,000 242 Climbing Salt Lake Center
Sat 02:19:20 PM 44.6981 -113.8672 236° Southwest 381 438 30,000  Level Salt Lake Center
Sat 02:20:22 PM 44.6289 -114.0097 236° Southwest 390 449 30,000  Level Salt Lake Center
Sat 02:21:24 PM 44.5678 -114.1331 235° Southwest 399 459 30,000  Level Salt Lake Center
Sat 02:22:26 PM 44.5069 -114.2581 236° Southwest 403 464 30,000  Level Salt Lake Center
Sat 02:23:28 PM 44.4342 -114.4047 235° Southwest 408 470 30,000  Level Salt Lake Center
Sat 02:24:30 PM 44.3703 -114.5306 235° Southwest 413 475 30,000  Level Salt Lake Center
Sat 02:25:32 PM 44.2958 -114.6769 235° Southwest 413 475 30,000  Level Salt Lake Center
Sat 02:26:34 PM 44.2244 -114.7947 230° Southwest 413 475 30,000  Level Salt Lake Center
Sat 02:27:37 PM 44.1361 -114.9269 227° Southwest 415 478 30,000  Level Salt Lake Center
Sat 02:28:39 PM 44.0594 -115.0414 227° Southwest 420 483 30,000  Level Salt Lake Center
Sat 02:29:41 PM 43.9697 -115.1739 227° Southwest 419 482 30,000  Level Salt Lake Center
Sat 02:30:43 PM 43.8953 -115.2878 228° Southwest 414 476 30,000  Level Salt Lake Center
Sat 02:31:45 PM 43.8197 -115.4003 227° Southwest 413 475 30,000  Level Salt Lake Center
Sat 02:32:47 PM 43.7317 -115.5317 227° Southwest 414 476 30,000  Level Salt Lake Center
Sat 02:33:49 PM 43.6547 -115.6439 227° Southwest 418 481 30,000  Level Salt Lake Center
Sat 02:34:51 PM 43.5669 -115.7761 228° Southwest 418 481 30,000  Level Salt Lake Center
Sat 02:35:53 PM 43.4911 -115.8875 227° Southwest 415 478 30,000  Level Salt Lake Center
Sat 02:36:55 PM 43.4019 -116.0175 227° Southwest 416 479 30,000  Level Salt Lake Center
Sat 02:37:57 PM 43.3253 -116.1281 226° Southwest 417 480 30,000  Level Salt Lake Center
Sat 02:38:59 PM 43.2358 -116.2564 226° Southwest 416 479 30,000  Level Salt Lake Center
Sat 02:40:01 PM 43.1594 -116.3669 227° Southwest 416 479 30,000  Level Salt Lake Center
Sat 02:41:03 PM 43.0703 -116.4944 226° Southwest 415 478 30,000  Level Salt Lake Center
Sat 02:42:05 PM 42.9933 -116.6033 226° Southwest 416 479 30,000  Level Salt Lake Center
Sat 02:43:07 PM 42.9164 -116.7133 226° Southwest 419 482 30,000  Level Salt Lake Center
Sat 02:44:09 PM 42.8264 -116.8394 226° Southwest 416 479 30,000  Level Salt Lake Center
Sat 02:45:11 PM 42.7494 -116.9492 226° Southwest 419 482 30,000  Level Salt Lake Center
Sat 02:46:13 PM 42.6589 -117.0761 226° Southwest 419 482 30,000  Level Salt Lake Center
Sat 02:47:15 PM 42.5811 -117.1842 226° Southwest 418 481 30,000  Level Salt Lake Center
Sat 02:48:17 PM 42.4900 -117.3103 226° Southwest 418 481 30,000  Level Salt Lake Center
Sat 02:49:18 PM 42.4128 -117.4192 226° Southwest 419 482 30,000  Level Salt Lake Center
Sat 02:50:20 PM 42.3211 -117.5447 225° Southwest 418 481 30,000  Level Salt Lake Center
Sat 02:51:22 PM 42.2439 -117.6517 226° Southwest 417 480 30,000  Level Salt Lake Center
Sat 02:52:24 PM 42.1658 -117.7589 226° Southwest 416 479 30,000  Level Salt Lake Center
Sat 02:53:26 PM 42.0733 -117.8847 225° Southwest 420 483 30,000  Level Salt Lake Center
Sat 02:54:28 PM 41.9950 -117.9928 226° Southwest 421 484 30,000  Level Salt Lake Center
Sat 02:55:30 PM 41.9028 -118.1153 225° Southwest 419 482 30,000  Level Salt Lake Center
Sat 02:56:32 PM 41.8250 -118.2233 226° Southwest 420 483 30,000  Level Salt Lake Center
Sat 02:57:34 PM 41.7328 -118.3458 225° Southwest 419 482 30,000  Level Salt Lake Center
Sat 02:58:36 PM 41.6531 -118.4514 225° Southwest 421 484 30,000 634 Level Salt Lake Center
Sat 02:59:37 PM 41.5619 -118.5742 225° Southwest 419 482 31,300 976 Climbing Salt Lake Center
Sat 03:00:39 PM 41.4872 -118.6689 224° Southwest 404 465 32,000 339 Climbing Salt Lake Center
Sat 03:01:41 PM 41.4056 -118.7522 217° Southwest 391 450 32,000  Level Salt Lake Center
Sat 03:02:43 PM 41.3219 -118.8764 228° Southwest 400 460 32,000  Level Salt Lake Center
Sat 03:03:45 PM 41.2456 -118.9828 226° Southwest 408 470 32,000  Level Salt Lake Center
Sat 03:04:47 PM 41.1561 -119.1036 226° Southwest 411 473 32,000  Level Salt Lake Center
Sat 03:05:49 PM 41.0778 -119.2069 225° Southwest 414 476 32,000  Level Salt Lake Center
Sat 03:07:02 PM 40.9817 -119.3344 225° Southwest 415 478 32,000  Level Oakland Center
Sat 03:08:03 PM 40.8878 -119.4550 224° Southwest 417 480 32,000  Level Oakland Center
Sat 03:09:05 PM 40.8064 -119.5619 225° Southwest 416 479 32,000  Level Oakland Center
Sat 03:10:06 PM 40.7228 -119.6675 224° Southwest 415 478 32,000  Level Oakland Center
Sat 03:11:07 PM 40.6403 -119.7736 224° Southwest 416 479 32,000  Level Oakland Center
Sat 03:12:08 PM 40.5567 -119.8783 224° Southwest 415 478 32,000  Level Oakland Center
Sat 03:13:10 PM 40.4675 -119.9933 224° Southwest 422 486 32,000 -146 Level Oakland Center
Sat 03:14:11 PM 40.3842 -120.0983 224° Southwest 422 486 31,700 -639 Descending Oakland Center
Sat 03:15:12 PM 40.2997 -120.2047 224° Southwest 426 490 30,700 -829 Descending Oakland Center
Sat 03:16:14 PM 40.2092 -120.3175 224° Southwest 444 511 30,000 -341 Descending Oakland Center
Sat 03:17:15 PM 40.1036 -120.4503 224° Southwest 442 509 30,000  Level Oakland Center
Sat 03:18:16 PM 40.0211 -120.5500 223° Southwest 428 493 30,000  Level Oakland Center
Sat 03:19:18 PM 39.9289 -120.6650 224° Southwest 425 489 30,000  Level Oakland Center
Sat 03:20:19 PM 39.8444 -120.7689 223° Southwest 420 483 30,000  Level Oakland Center
Sat 03:21:20 PM 39.7594 -120.8731 223° Southwest 420 483 30,000  Level Oakland Center
Sat 03:22:22 PM 39.6758 -120.9767 224° Southwest 417 480 30,000  Level Oakland Center
Sat 03:23:23 PM 39.5903 -121.0803 223° Southwest 422 486 30,000  Level Oakland Center
Sat 03:24:24 PM 39.5114 -121.1756 223° Southwest 417 480 30,000  Level Oakland Center
Sat 03:25:26 PM 39.4219 -121.2853 223° Southwest 417 480 30,000  Level Oakland Center
Sat 03:26:27 PM 39.3369 -121.3872 223° Southwest 420 483 30,000  Level Oakland Center
Sat 03:27:28 PM 39.2525 -121.4903 223° Southwest 419 482 30,000  Level Oakland Center
Sat 03:28:30 PM 39.1506 -121.6128 223° Southwest 420 483 30,000  Level Oakland Center
Sat 03:29:31 PM 39.0650 -121.7150 223° Southwest 421 484 30,000  Level Oakland Center
Sat 03:30:32 PM 38.9792 -121.8169 223° Southwest 422 486 30,000  Level Oakland Center
Sat 03:31:33 PM 38.8936 -121.9183 223° Southwest 421 484 30,000 -439 Level Oakland Center
Sat 03:32:35 PM 38.8069 -122.0214 223° Southwest 425 489 29,100 -1,317 Descending Oakland Center
Sat 03:33:36 PM 38.7156 -122.1272 222° Southwest 435 501 27,300 -1,820 Descending Oakland Center
Sat 03:34:37 PM 38.6253 -122.2339 223° Southwest 442 509 25,400 -1,623 Descending Oakland Center
Sat 03:35:38 PM 38.5356 -122.3400 223° Southwest 442 509 24,000 -1,756 Descending Oakland Center
Sat 03:36:40 PM 38.4289 -122.4622 222° Southwest 435 501 21,800 -2,293 Descending Oakland Center
Sat 03:37:41 PM 38.3461 -122.5592 223° Southwest 416 479 19,300 -2,066 Descending Oakland Center
Sat 03:38:42 PM 38.2714 -122.6453 222° Southwest 377 434 17,600 -1,672 Descending Oakland Center
Sat 03:39:43 PM 38.2072 -122.7200 222° Southwest 330 380 15,900 -1,707 Descending Oakland Center
Sat 03:40:45 PM 38.1442 -122.7931 222° Southwest 314 361 14,100 -1,902 Descending Oakland Center
Sat 03:41:46 PM 38.0728 -122.8333 204° Southwest 302 348 12,000 -1,525 Descending Oakland Center
Sat 03:42:47 PM 38.0067 -122.7728 144° Southeast 298 343 11,000 -492 Descending Oakland Center
Sat 03:43:48 PM 37.9339 -122.6978 141° Southeast 288 331 11,000  Level Oakland Center
Sat 03:44:50 PM 37.8728 -122.6347 141° Southeast 293 337 11,000  Level Oakland Center
Sat 03:45:51 PM 37.8081 -122.5681 141° Southeast 304 350 11,000  Level Oakland Center
Sat 03:46:52 PM 37.7439 -122.5022 141° Southeast 302 348 11,000  Level Oakland Center
Sat 03:47:53 PM 37.6833 -122.4400 141° Southeast 289 333 11,000  Level Oakland Center
Sat 03:48:54 PM 37.6317 -122.3872 141° Southeast 252 290 11,000 -439 Level Oakland Center
Sat 03:49:56 PM 37.5586 -122.3414 154° Southeast 247 284 10,100 -1,171 Descending Oakland Center
Sat 03:50:57 PM 37.4975 -122.3044 154° Southeast 246 283 8,600 -1,475 Descending Oakland Center
Sat 03:51:58 PM 37.4636 -122.2322 121° Southeast 250 288 7,100 -1,279 Descending Oakland Center
Sat 03:52:59 PM 37.4506 -122.1586 103° East 239 275 6,000 -1,073 Descending Oakland Center
Sat 03:54:01 PM 37.5053 -122.1519 North 209 241 4,900 -1,220 Descending Oakland Center
Sat 03:55:02 PM 37.5414 -122.1922 319° Northwest 186 214 3,500 -1,279 Descending Oakland Center
Sat 03:56:03 PM 37.5639 -122.2450 298° West 178 205 2,300 -927 Descending Oakland Center
Sat 03:57:05 PM 37.5842 -122.2914 299° West 165 190 1,600 -732 Descending Oakland Center
Sat 03:58:06 PM 37.6031 -122.3319 300° West 147 169 800 -738 Descending Oakland Center
Sat 03:59:07 PM 37.6208 -122.3750 298° West 140 161 100 -689 Descending Oakland Center

Login

Don't have an account? Register now (free) for customized features, flight alerts, and more!